Oldhams, Virginia
Current Conditions -  °F | °C
As of 7:15 PM on Wednesday 28 Jan 2015 (Local Time) from KXSA Reporting Station
Clear Clear  
Wind Chill: 32°   Ceiling: Unl
Heat Index: 32°   Visibility: 10mi
Dew Point:   Wind: 0mph
Humidity: 28%   Direction: NA
Pressure: 30.29"   Gusts: NA
Location:  38°N, 76.67°W
Report Text: KXSA 290015Z AUTO 00000KT 10SM CLR 00/M16 A3029 RMK AO2 T00001165
Loading
Personal Weather Stations






























Interactive Weather Map New forecast layout! Learn more

10-Day Weather Forecast

Advertisements
Track Severe Weather on mobile